createdAt,value
2018-04-14T00:02:44.852Z,12.69
2018-04-14T00:04:46.890Z,12.64
2018-04-14T00:07:33.417Z,12.64
2018-04-14T00:11:00.366Z,12.66
2018-04-14T00:13:47.159Z,12.71
2018-04-14T00:16:31.649Z,12.64
2018-04-14T00:19:18.185Z,12.74
2018-04-14T00:22:04.494Z,12.64
2018-04-14T00:24:51.192Z,12.51
2018-04-14T00:27:35.668Z,12.34
2018-04-14T00:30:23.359Z,12.37
2018-04-14T00:33:07.562Z,12.39
2018-04-14T00:35:54.074Z,12.41
2018-04-14T00:38:41.297Z,12.23
2018-04-14T00:41:27.682Z,12.29
2018-04-14T00:44:14.399Z,12.29
2018-04-14T00:47:01.259Z,12.44
2018-04-14T00:49:47.795Z,12.42
2018-04-14T00:52:36.693Z,12.39
2018-04-14T00:55:20.877Z,12.38
2018-04-14T00:58:07.212Z,12.59
2018-04-14T01:00:53.780Z,12.69
2018-04-14T01:03:40.256Z,12.79
2018-04-14T01:06:24.429Z,12.93
2018-04-14T01:09:09.084Z,12.95
2018-04-14T01:11:53.303Z,12.74
2018-04-14T01:14:38.233Z,12.67
2018-04-14T01:17:24.279Z,12.52
2018-04-14T01:20:49.790Z,12.56
2018-04-14T01:23:36.243Z,12.60
2018-04-14T01:26:20.533Z,12.64
2018-04-14T01:29:05.261Z,12.45
2018-04-14T01:32:32.623Z,12.38
2018-04-14T01:35:19.044Z,12.46
2018-04-14T01:38:03.342Z,12.64
2018-04-14T01:40:50.898Z,12.75
2018-04-14T01:43:37.588Z,12.77
2018-04-14T01:46:24.198Z,12.71
2018-04-14T01:49:11.518Z,12.56
2018-04-14T01:51:55.876Z,12.46
2018-04-14T01:54:42.130Z,12.20
2018-04-14T01:57:29.222Z,12.06
2018-04-14T02:00:56.280Z,12.04
2018-04-14T02:03:40.854Z,12.13
2018-04-14T02:06:26.880Z,12.08
2018-04-14T02:09:11.861Z,11.94
2018-04-14T02:12:37.310Z,11.77
2018-04-14T02:15:24.953Z,11.77
2018-04-14T02:17:26.749Z,12.02
2018-04-14T02:20:14.330Z,12.15
2018-04-14T02:23:01.710Z,12.16
2018-04-14T02:25:47.617Z,12.05
2018-04-14T02:28:31.743Z,11.87
2018-04-14T02:30:33.411Z,11.85
2018-04-14T02:33:20.444Z,11.80
2018-04-14T02:36:06.700Z,11.71
2018-04-14T02:38:52.872Z,11.74
2018-04-14T02:41:37.038Z,11.71
2018-04-14T02:43:39.463Z,11.74
2018-04-14T02:46:25.921Z,11.77
2018-04-14T02:49:13.315Z,11.90
2018-04-14T02:51:59.612Z,11.90
2018-04-14T02:54:44.070Z,12.04
2018-04-14T02:57:30.580Z,11.87
2018-04-14T03:00:16.225Z,11.72
2018-04-14T03:03:02.202Z,11.71
2018-04-14T03:05:46.594Z,11.67
2018-04-14T03:08:33.589Z,11.64
2018-04-14T03:10:35.459Z,11.62
2018-04-14T03:13:23.082Z,11.70
2018-04-14T03:15:24.794Z,11.68
2018-04-14T03:18:52.242Z,11.75
2018-04-14T03:21:38.166Z,11.75
2018-04-14T03:24:24.248Z,11.56
2018-04-14T03:26:26.185Z,11.52
2018-04-14T03:29:12.364Z,11.67
2018-04-14T03:31:59.894Z,11.64
2018-04-14T03:34:47.160Z,11.49
2018-04-14T03:37:33.579Z,11.59
2018-04-14T03:40:20.125Z,11.61
2018-04-14T03:43:07.534Z,11.74
2018-04-14T03:45:53.874Z,11.96
2018-04-14T03:48:39.725Z,11.72
2018-04-14T03:51:28.319Z,12.04
2018-04-14T03:53:30.402Z,12.05
2018-04-14T03:56:17.338Z,12.09
2018-04-14T03:59:05.383Z,11.94
2018-04-14T04:02:32.874Z,11.99
2018-04-14T04:05:17.400Z,12.04
2018-04-14T04:08:03.855Z,12.01
2018-04-14T04:10:48.323Z,11.80
2018-04-14T04:13:34.340Z,11.72
2018-04-14T04:16:21.932Z,11.77
2018-04-14T04:19:06.544Z,11.65
2018-04-14T04:21:53.100Z,11.53
2018-04-14T04:24:41.937Z,11.43
2018-04-14T04:26:43.812Z,11.35
2018-04-14T04:29:30.313Z,11.19
2018-04-14T04:31:32.313Z,11.25
2018-04-14T04:34:19.175Z,11.16
2018-04-14T04:37:05.919Z,11.25
2018-04-14T04:39:50.529Z,11.16
2018-04-14T04:42:35.303Z,11.21
2018-04-14T04:45:21.565Z,11.20
2018-04-14T04:48:09.054Z,11.17
2018-04-14T04:50:53.491Z,11.27
2018-04-14T04:53:38.073Z,11.31
2018-04-14T04:56:24.471Z,11.24
2018-04-14T04:59:11.078Z,11.24
2018-04-14T05:01:57.495Z,11.24
2018-04-14T05:04:45.458Z,11.32
2018-04-14T05:07:32.162Z,11.16
2018-04-14T05:10:16.412Z,11.13
2018-04-14T05:13:02.929Z,11.24
2018-04-14T05:15:49.832Z,11.27
2018-04-14T05:18:36.969Z,11.28
2018-04-14T05:21:21.436Z,11.36
2018-04-14T05:24:05.903Z,11.24
2018-04-14T05:26:53.974Z,11.28
2018-04-14T05:29:40.478Z,11.29
2018-04-14T05:32:24.793Z,11.29
2018-04-14T05:35:11.407Z,11.14
2018-04-14T05:37:58.217Z,11.19
2018-04-14T05:40:42.766Z,11.27
2018-04-14T05:43:29.100Z,11.31
2018-04-14T05:46:13.493Z,11.21
2018-04-14T05:48:15.864Z,11.19
2018-04-14T05:51:02.328Z,11.24
2018-04-14T05:53:48.692Z,11.29
2018-04-14T05:56:34.735Z,11.27
2018-04-14T05:59:20.945Z,11.27
2018-04-14T06:01:23.027Z,11.29
2018-04-14T06:04:07.141Z,11.24
2018-04-14T06:06:55.025Z,11.28
2018-04-14T06:09:38.266Z,11.38
2018-04-14T06:12:33.714Z,11.46
2018-04-14T06:15:26.899Z,11.62
2018-04-14T06:18:33.309Z,11.64
2018-04-14T06:21:22.403Z,11.44
2018-04-14T06:25:00.868Z,11.47
2018-04-14T06:27:52.174Z,11.62
2018-04-14T06:30:38.210Z,11.70
2018-04-14T06:33:26.793Z,11.78
2018-04-14T06:36:36.487Z,11.75
2018-04-14T06:39:20.763Z,11.77
2018-04-14T06:42:09.993Z,11.64
2018-04-14T17:01:29.344Z,16.95
2018-04-14T17:04:14.075Z,16.89
2018-04-14T17:06:25.208Z,16.95
2018-04-14T17:09:21.380Z,16.86
2018-04-14T17:12:05.350Z,16.86
2018-04-14T17:14:58.365Z,16.92
2018-04-14T17:17:00.360Z,16.90
2018-04-14T17:19:53.640Z,16.90
2018-04-14T17:21:55.870Z,16.85
2018-04-14T17:24:56.387Z,16.83
2018-04-14T17:26:58.749Z,16.77
2018-04-14T17:30:00.993Z,16.68
2018-04-14T17:33:12.951Z,16.41
2018-04-14T17:35:57.514Z,16.42
2018-04-14T17:38:00.158Z,16.40
2018-04-14T17:40:50.177Z,16.50
2018-04-14T17:43:35.363Z,16.40
2018-04-14T17:46:24.846Z,16.44
2018-04-14T17:49:15.582Z,16.41
2018-04-14T17:52:10.694Z,16.37
2018-04-14T17:55:01.508Z,16.33
2018-04-14T17:57:52.645Z,16.27
2018-04-14T18:00:36.529Z,16.20
2018-04-14T18:03:29.752Z,16.20
2018-04-14T18:06:14.033Z,16.04
2018-04-14T18:09:11.128Z,16.01
2018-04-14T18:11:57.932Z,15.86
2018-04-14T18:14:41.970Z,15.86
2018-04-14T18:17:26.514Z,15.76
2018-04-14T18:20:54.204Z,15.76
2018-04-14T18:22:56.941Z,15.61
2018-04-14T18:25:40.846Z,15.63
2018-04-14T18:27:43.416Z,15.63
2018-04-14T18:30:30.456Z,15.54
2018-04-14T18:33:18.798Z,15.49
2018-04-14T18:35:21.566Z,15.48
2018-04-14T18:38:05.399Z,15.45
2018-04-14T18:40:56.245Z,15.39
2018-04-14T18:43:42.379Z,15.38
2018-04-14T18:46:26.766Z,15.41
2018-04-14T18:49:12.958Z,15.36
2018-04-14T18:51:56.822Z,15.30
2018-04-14T18:54:40.125Z,15.28
2018-04-14T18:56:43.607Z,15.17
2018-04-14T18:59:33.541Z,15.23
2018-04-14T19:02:23.522Z,15.12
2018-04-14T19:05:12.160Z,15.09
2018-04-14T19:07:59.055Z,15.06
2018-04-14T19:10:47.791Z,15.08
2018-04-14T19:13:35.578Z,14.98
2018-04-14T19:16:22.161Z,14.98
2018-04-14T19:19:12.468Z,15.01
2018-04-14T19:21:55.921Z,14.95
2018-04-14T19:24:41.413Z,14.87
2018-04-14T19:26:43.564Z,14.93
2018-04-14T19:29:28.380Z,14.83
2018-04-14T19:32:16.270Z,14.74
2018-04-14T19:34:18.426Z,14.80
2018-04-14T19:37:03.598Z,14.83
2018-04-14T19:39:05.129Z,14.80
2018-04-14T19:41:07.224Z,14.75
2018-04-14T19:43:09.568Z,14.65
2018-04-14T19:45:59.704Z,14.78
2018-04-14T19:49:01.324Z,14.71
2018-04-14T19:51:11.765Z,14.68
2018-04-14T19:54:07.857Z,14.68
2018-04-14T19:57:39.631Z,14.71
2018-04-14T19:59:43.635Z,14.67
2018-04-14T20:02:28.615Z,14.69
2018-04-14T20:04:36.346Z,14.67
2018-04-14T20:07:21.274Z,14.71
2018-04-14T20:10:07.607Z,14.71
2018-04-14T20:12:09.697Z,14.53
2018-04-14T20:14:54.606Z,14.54
2018-04-14T20:17:39.043Z,14.54
2018-04-14T20:19:40.818Z,14.43
2018-04-14T20:22:25.653Z,14.46
2018-04-14T20:25:11.399Z,14.50
2018-04-14T20:27:58.161Z,14.27
2018-04-14T20:29:59.996Z,14.29
2018-04-14T20:32:47.233Z,14.29
2018-04-14T20:34:49.207Z,14.27
2018-04-14T20:37:34.641Z,14.17
2018-04-14T20:40:19.485Z,14.24
2018-04-14T20:43:04.676Z,14.16
2018-04-14T20:45:52.621Z,14.16
2018-04-14T20:48:39.366Z,14.14
2018-04-14T20:51:25.999Z,14.07
2018-04-14T20:54:10.875Z,14.06
2018-04-14T20:56:12.647Z,13.94
2018-04-14T20:59:00.118Z,13.94
2018-04-14T21:01:46.529Z,14.06
2018-04-14T21:04:33.457Z,13.94
2018-04-14T21:07:20.137Z,13.81
2018-04-14T21:10:07.011Z,13.79
2018-04-14T21:12:54.410Z,13.80
2018-04-14T21:15:39.896Z,13.76
2018-04-14T21:17:41.570Z,13.73
2018-04-14T21:20:26.530Z,13.73
2018-04-14T21:22:28.228Z,13.63
2018-04-14T21:25:12.840Z,13.65
2018-04-14T21:28:01.050Z,13.58
2018-04-14T21:30:45.334Z,13.59
2018-04-14T21:32:46.897Z,13.54
2018-04-14T21:35:31.115Z,13.52
2018-04-14T21:38:16.710Z,13.52
2018-04-14T21:40:18.310Z,13.58
2018-04-14T21:43:03.831Z,13.52
2018-04-14T21:45:48.043Z,13.56
2018-04-14T21:48:33.178Z,13.55
2018-04-14T21:50:34.661Z,13.55
2018-04-14T21:52:36.961Z,13.44
2018-04-14T21:55:22.290Z,13.58
2018-04-14T21:58:08.438Z,13.47
2018-04-14T22:00:10.551Z,13.61
2018-04-14T22:02:55.299Z,13.46
2018-04-14T22:05:39.996Z,13.56
2018-04-14T22:09:06.770Z,13.52
2018-04-14T22:11:52.336Z,13.47
2018-04-14T22:14:36.848Z,13.49
2018-04-14T22:16:38.266Z,13.43
2018-04-14T22:19:24.289Z,13.46
2018-04-14T22:22:10.005Z,13.46
2018-04-14T22:24:56.034Z,13.56
2018-04-14T22:27:41.446Z,13.65
2018-04-14T22:30:27.198Z,13.54
2018-04-14T22:32:29.831Z,13.55
2018-04-14T22:35:14.793Z,13.58
2018-04-14T22:38:01.269Z,13.59
2018-04-14T22:40:47.585Z,13.63
2018-04-14T22:42:49.401Z,13.56
2018-04-14T22:46:16.467Z,13.67
2018-04-14T22:48:18.287Z,13.56
2018-04-14T22:51:02.508Z,13.56
2018-04-14T22:53:04.900Z,13.55
2018-04-14T22:55:49.683Z,13.58
2018-04-14T22:58:34.604Z,13.70
2018-04-14T23:01:20.406Z,13.69
2018-04-14T23:03:22.027Z,13.65
2018-04-14T23:06:07.315Z,13.62
2018-04-14T23:08:53.063Z,13.71
2018-04-14T23:11:38.738Z,13.70
2018-04-14T23:13:40.583Z,13.61
2018-04-14T23:16:25.007Z,13.62
2018-04-14T23:19:51.441Z,13.63
2018-04-14T23:22:36.377Z,13.55
2018-04-14T23:25:21.836Z,13.67
2018-04-14T23:28:05.906Z,13.63
2018-04-14T23:30:51.328Z,13.67
2018-04-14T23:33:37.998Z,13.56
2018-04-14T23:35:39.542Z,13.55
2018-04-14T23:37:41.412Z,13.61
2018-04-14T23:40:27.573Z,13.55
2018-04-14T23:43:12.092Z,13.58
2018-04-14T23:45:57.366Z,13.52
2018-04-14T23:48:42.671Z,13.33
2018-04-14T23:51:27.408Z,13.33
2018-04-14T23:54:12.002Z,13.36
2018-04-14T23:56:57.390Z,13.30
2018-04-14T23:59:42.142Z,13.32
